• Join FlightAware (Why Join?)
  • Login
  • US Flag 
01:39PM EDT


 

Airport Tracker/Info


-or-


 

Live Flight TrackerFlight Track Log ✈ SWA407 ✈ 16-Apr-2013 ✈ KSFO - KSAN

Flight Track Log - Related Links

Times and Time Zones

All times are in EDT time to prevent confusion due to time zone crossing. See the SWA407 flight status page for this flight to view local times or setup timezone preferences in your user account.

Time Position Orientation Groundspeed Altitude Reporting Facility
EDT Latitude Longitude Course Direction KTS MPH feet Rate Location/Type
11:01PM 37.6500 -122.3667 244° Southwest 153 176 2,100  Level Northern Cal TRACON
11:03PM 37.6092 -122.4717 244° Southwest 295 339 10,000 3,780 Climbing Oakland Center
11:04PM 37.5219 -122.5175 203° Southwest 354 407 13,600 3,300 Climbing Oakland Center
11:05PM 37.4153 -122.5267 184° South 385 443 16,800 3,120 Climbing Oakland Center
11:06PM 37.2947 -122.5394 185° South 426 490 20,000 3,060 Climbing Oakland Center
11:07PM 37.1669 -122.5517 184° South 452 520 23,100 3,000 Climbing Oakland Center
11:08PM 37.0336 -122.5639 184° South 473 544 26,100 2,760 Climbing Oakland Center
11:09PM 36.8956 -122.5583 178° South 494 568 28,800 2,460 Climbing Oakland Center
11:10PM 36.7572 -122.5192 167° South 507 583 31,200 2,160 Climbing Oakland Center
11:11PM 36.6161 -122.4825 168° South 516 594 33,200 2,280 Climbing Oakland Center
11:12PM 36.4767 -122.4467 168° South 514 592 35,900 2,160 Climbing Oakland Center
11:13PM 36.3603 -122.3422 144° Southeast 531 611 37,600 1,860 Climbing Oakland Center
11:14PM 36.2453 -122.1772 131° Southeast 528 608 39,800 1,620 Climbing Oakland Center
11:15PM 36.1519 -122.0433 131° Southeast 521 600 41,000 540 Climbing Oakland Center
11:16PM 36.0606 -121.9086 130° Southeast 514 592 41,000  Level Oakland Center
11:17PM 35.9786 -121.7908 131° Southeast 513 590 41,000  Level Oakland Center
11:18PM 35.8678 -121.6306 130° Southeast 514 592 41,000  Level Oakland Center
11:19PM 35.7728 -121.4953 131° Southeast 519 597 41,000  Level Oakland Center
11:20PM 35.6786 -121.3614 131° Southeast 520 598 41,000  Level Oakland Center
11:21PM 35.5833 -121.2281 131° Southeast 520 598 41,000  Level Oakland Center
11:22PM 35.4892 -121.0917 130° Southeast 524 603 41,000  Level Oakland Center
11:23PM 35.4061 -120.9464 125° Southeast 525 604 41,000  Level Oakland Center
11:24PM 35.3233 -120.8000 125° Southeast 526 605 41,000  Level Oakland Center
11:25PM 35.2408 -120.6533 125° Southeast 530 610 41,000  Level Oakland Center
11:26PM 35.1575 -120.5097 125° Southeast 527 606 41,000  Level Oakland Center
11:27PM 35.0578 -120.3342 125° Southeast 531 611 41,000  Level Oakland Center
11:28PM 34.9744 -120.1886 125° Southeast 529 609 41,000  Level Oakland Center
11:29PM 34.8919 -120.0469 125° Southeast 519 597 41,000  Level Oakland Center
11:30PM 34.8106 -119.9047 125° Southeast 517 595 41,000  Level Oakland Center
11:32PM 34.7289 -119.7644 125° Southeast 512 589 41,000  Level Oakland Center
11:33PM 34.6458 -119.6242 126° Southeast 512 589 41,000  Level Oakland Center
11:34PM 34.5447 -119.4525 126° Southeast 512 589 41,000  Level Los Angeles Center
11:35PM 34.4625 -119.3122 125° Southeast 511 588 41,000  Level Los Angeles Center
11:36PM 34.3800 -119.1742 126° Southeast 510 587 41,000  Level Los Angeles Center
11:37PM 34.2972 -119.0350 126° Southeast 509 586 41,000  Level Los Angeles Center
11:38PM 34.1967 -118.8694 126° Southeast 510 587 41,000 -300 Level Los Angeles Center
11:39PM 34.1139 -118.7325 126° Southeast 506 582 40,500 -1,380 Descending Los Angeles Center
11:40PM 34.0292 -118.5925 126° Southeast 513 590 38,200 -2,100 Descending Los Angeles Center
11:41PM 33.9425 -118.4483 126° Southeast 524 603 36,300 -2,640 Descending Los Angeles Center
11:42PM 33.8386 -118.3131 133° Southeast 521 600 32,800 -3,060 Descending Los Angeles Center
11:43PM 33.7372 -118.1878 134° Southeast 520 598 30,000 -2,400 Descending Los Angeles Center
11:44PM 33.6444 -118.0631 132° Southeast 496 571 28,000 -2,100 Descending Los Angeles Center
11:45PM 33.5519 -117.9461 133° Southeast 481 554 25,800 -2,280 Descending Los Angeles Center
11:46PM 33.4608 -117.8317 134° Southeast 475 547 23,300 -2,400 Descending Los Angeles Center
11:47PM 33.3725 -117.7200 133° Southeast 463 533 20,900 -2,640 Descending Los Angeles Center
11:48PM 33.2689 -117.5886 133° Southeast 453 521 18,000 -2,640 Descending Los Angeles Center
11:49PM 33.2333 -117.5500 138° Southeast 444 511 16,900 -2,400 Descending Southern California TRACON
11:50PM 33.1500 -117.4667 140° Southeast 421 484 14,700 -2,100 Descending Southern California TRACON
11:50PM 33.0825 -117.4247 152° Southeast 413 475 13,700 -2,040 Descending Los Angeles Center
11:51PM 32.9961 -117.3553 146° Southeast 383 441 11,300 -2,220 Descending Los Angeles Center
11:52PM 32.9500 -117.3167 145° Southeast 371 427 10,500 -1,140 Descending Southern California TRACON
11:53PM 32.8667 -117.2500 146° Southeast 328 377 9,700 -960 Descending Southern California TRACON
11:53PM 32.8369 -117.2308 152° Southeast 326 375 9,000 -1,020 Descending Los Angeles Center
11:54PM 32.7975 -117.1403 117° Southeast 285 328 8,100 -780 Descending Los Angeles Center
11:55PM 32.7833 -117.1167 126° Southeast 253 291 8,000 -1,260 Descending Southern California TRACON
11:56PM 32.7833 -117.0333 90° East 228 262 6,400 -1,680 Descending Southern California TRACON
11:57PM 32.7500 -116.9833 128° Southeast 227 261 4,700 -1,440 Descending Southern California TRACON
11:58PM 32.7167 -117.0333 232° Southwest 165 190 3,400 -1,200 Descending Southern California TRACON
11:59PM 32.7167 -117.0667 270° West 158 182 2,300 -1,140 Descending Southern California TRACON
12:00AM 32.7167 -117.1333 270° West 139 160 1,200 -960 Descending Southern California TRACON
12:00AM 32.7228 -117.1494 294° West 141 162 600 -540 Descending Los Angeles Center
12:01AM 32.7369 -117.1986 289° West 138 159 300 -300 Descending Los Angeles Center
12:03AM 32.7336 -117.1897 140° Southeast  Level Estimated